Wetterdaten: Woche 17.04.06 - 23.04.06 (KW16)
Datum Zeit Temperatur Luftfeuchte Niederschlag Windrichtung Wind
17.04.2006 00:00 8,2 C 94 % 0,0 l/m S 9,7 km/h (2 Bft)
17.04.2006 01:00 7,9 C 96 % 0,0 l/m S-SO 5,9 km/h (2 Bft)
17.04.2006 02:00 7,7 C 98 % 0,0 l/m S-SW 10,4 km/h (2 Bft)
17.04.2006 03:00 7,7 C 98 % 0,0 l/m S-SW 10,2 km/h (2 Bft)
17.04.2006 04:00 7,7 C 99 % 0,0 l/m S-SW 3,1 km/h (1 Bft)
17.04.2006 05:00 7,6 C 98 % 0,0 l/m N 0,0 km/h (0 Bft)
17.04.2006 06:00 7,4 C 99 % 0,0 l/m N 0,0 km/h (0 Bft)
17.04.2006 07:00 7,3 C 99 % 0,0 l/m N 0,0 km/h (0 Bft)
17.04.2006 08:00 8,0 C 99 % 0,0 l/m S 1,0 km/h (0 Bft)
17.04.2006 09:00 9,5 C 91 % 0,0 l/m S 8,1 km/h (2 Bft)
17.04.2006 10:00 10,7 C 72 % 0,0 l/m W 8,2 km/h (2 Bft)
17.04.2006 11:00 12,1 C 63 % 0,0 l/m W 10,2 km/h (2 Bft)
17.04.2006 12:00 13,4 C 58 % 0,0 l/m W 10,8 km/h (2 Bft)
17.04.2006 13:00 15,6 C 47 % 0,0 l/m S-SW 10,8 km/h (2 Bft)
17.04.2006 14:00 13,7 C 49 % 0,0 l/m W 16,5 km/h (3 Bft)
17.04.2006 15:00 12,8 C 54 % 0,0 l/m W 14,5 km/h (3 Bft)
17.04.2006 16:00 12,1 C 58 % 0,0 l/m W 16,5 km/h (3 Bft)
17.04.2006 17:00 11,2 C 64 % 0,0 l/m NW 11,0 km/h (2 Bft)
17.04.2006 18:00 12,1 C 58 % 0,0 l/m NW 5,6 km/h (1 Bft)
17.04.2006 19:00 11,3 C 61 % 0,0 l/m NW 2,8 km/h (1 Bft)
17.04.2006 20:00 10,5 C 68 % 0,0 l/m N 0,1 km/h (0 Bft)
17.04.2006 21:00 10,1 C 71 % 0,0 l/m W 7,2 km/h (2 Bft)
17.04.2006 22:00 9,7 C 71 % 0,0 l/m W 2,4 km/h (1 Bft)
17.04.2006 23:00 9,3 C 74 % 0,0 l/m N 0,0 km/h (0 Bft)
18.04.2006 00:00 8,7 C 78 % 0,0 l/m N 0,0 km/h (0 Bft)
18.04.2006 01:00 8,4 C 78 % 0,0 l/m N 0,0 km/h (0 Bft)
18.04.2006 02:00 7,5 C 80 % 0,0 l/m N 0,0 km/h (0 Bft)
18.04.2006 03:00 7,3 C 84 % 0,0 l/m N 0,0 km/h (0 Bft)
18.04.2006 04:00 7,2 C 87 % 0,0 l/m N 0,0 km/h (0 Bft)
18.04.2006 05:00 7,1 C 89 % 0,0 l/m S-SO 0,3 km/h (0 Bft)
18.04.2006 06:00 7,0 C 91 % 0,0 l/m N 0,0 km/h (0 Bft)
18.04.2006 07:00 7,1 C 93 % 0,0 l/m N 0,0 km/h (0 Bft)
18.04.2006 08:00 7,7 C 94 % 0,0 l/m N 0,0 km/h (0 Bft)
18.04.2006 09:00 9,2 C 83 % 0,0 l/m N 1,9 km/h (1 Bft)
18.04.2006 10:00 10,2 C 73 % 0,0 l/m N 2,3 km/h (1 Bft)
18.04.2006 11:00 12,0 C 60 % 0,0 l/m SO 3,8 km/h (1 Bft)
18.04.2006 12:00 12,7 C 53 % 0,0 l/m W 3,9 km/h (1 Bft)
18.04.2006 13:00 14,1 C 44 % 0,0 l/m NW 8,6 km/h (2 Bft)
18.04.2006 14:00 15,0 C 44 % 0,0 l/m W 12,0 km/h (2 Bft)
18.04.2006 15:00 15,9 C 39 % 0,0 l/m W 13,4 km/h (3 Bft)
18.04.2006 16:00 15,8 C 38 % 0,0 l/m W 11,9 km/h (2 Bft)
18.04.2006 17:00 15,6 C 39 % 0,0 l/m W 12,3 km/h (3 Bft)
18.04.2006 18:00 14,6 C 39 % 0,0 l/m W 10,5 km/h (2 Bft)
18.04.2006 19:00 12,8 C 47 % 0,0 l/m N-NW 0,8 km/h (0 Bft)
18.04.2006 20:00 11,0 C 57 % 0,0 l/m S 0,3 km/h (0 Bft)
18.04.2006 21:00 10,2 C 64 % 0,0 l/m N 5,9 km/h (2 Bft)
18.04.2006 22:00 10,1 C 66 % 0,0 l/m N 1,8 km/h (1 Bft)
18.04.2006 23:00 9,3 C 70 % 0,0 l/m N 0,0 km/h (0 Bft)
19.04.2006 00:00 8,9 C 75 % 0,0 l/m N 0,0 km/h (0 Bft)
19.04.2006 01:00 8,5 C 76 % 0,0 l/m W-NW 0,8 km/h (0 Bft)
19.04.2006 02:00 8,4 C 75 % 0,0 l/m NW 0,6 km/h (0 Bft)
19.04.2006 03:00 8,1 C 73 % 0,0 l/m N 0,0 km/h (0 Bft)
19.04.2006 04:00 7,7 C 72 % 0,0 l/m N 0,0 km/h (0 Bft)
19.04.2006 05:00 7,0 C 73 % 0,0 l/m N 0,0 km/h (0 Bft)
19.04.2006 06:00 6,4 C 74 % 0,0 l/m N 0,0 km/h (0 Bft)
19.04.2006 07:00 6,7 C 75 % 0,0 l/m W-NW 1,1 km/h (0 Bft)
19.04.2006 08:00 8,1 C 68 % 0,0 l/m N-NO 2,3 km/h (1 Bft)
19.04.2006 09:00 9,8 C 57 % 0,0 l/m NO 8,6 km/h (2 Bft)
19.04.2006 10:00 12,4 C 49 % 0,0 l/m O-NO 12,3 km/h (3 Bft)
19.04.2006 11:00 14,0 C 44 % 0,0 l/m N 11,1 km/h (2 Bft)
19.04.2006 12:00 15,1 C 42 % 0,0 l/m O 11,9 km/h (2 Bft)
19.04.2006 13:00 15,8 C 41 % 0,0 l/m NO 11,3 km/h (2 Bft)
19.04.2006 14:00 17,1 C 38 % 0,0 l/m O 11,5 km/h (2 Bft)
19.04.2006 15:00 17,6 C 37 % 0,0 l/m O 9,5 km/h (2 Bft)
19.04.2006 16:00 17,4 C 36 % 0,0 l/m O 8,6 km/h (2 Bft)
19.04.2006 17:00 17,4 C 35 % 0,0 l/m S-SW 7,6 km/h (2 Bft)
19.04.2006 18:00 16,2 C 38 % 0,0 l/m O 7,4 km/h (2 Bft)
19.04.2006 19:00 14,6 C 47 % 0,0 l/m N 10,7 km/h (2 Bft)
19.04.2006 20:00 13,4 C 51 % 0,0 l/m N-NO 4,7 km/h (1 Bft)
19.04.2006 21:00 11,9 C 56 % 0,0 l/m N 0,1 km/h (0 Bft)
19.04.2006 22:00 10,2 C 65 % 0,0 l/m N 0,0 km/h (0 Bft)
19.04.2006 23:00 8,8 C 72 % 0,0 l/m N 0,0 km/h (0 Bft)
20.04.2006 00:00 7,9 C 76 % 0,0 l/m N 0,0 km/h (0 Bft)
20.04.2006 01:00 7,1 C 80 % 0,0 l/m N 0,0 km/h (0 Bft)
20.04.2006 02:00 6,6 C 84 % 0,0 l/m N 0,0 km/h (0 Bft)
20.04.2006 03:00 6,1 C 85 % 0,0 l/m N 0,0 km/h (0 Bft)
20.04.2006 04:00 5,3 C 87 % 0,0 l/m N 0,0 km/h (0 Bft)
20.04.2006 05:00 4,6 C 88 % 0,0 l/m N 0,0 km/h (0 Bft)
20.04.2006 06:00 3,9 C 90 % 0,0 l/m N 0,0 km/h (0 Bft)
20.04.2006 07:00 4,3 C 92 % 0,0 l/m N 0,0 km/h (0 Bft)
20.04.2006 08:00 7,2 C 92 % 0,0 l/m N 0,0 km/h (0 Bft)
20.04.2006 09:00 10,4 C 75 % 0,0 l/m S 4,0 km/h (1 Bft)
20.04.2006 10:00 13,3 C 59 % 0,0 l/m S 4,6 km/h (1 Bft)
20.04.2006 11:00 16,1 C 47 % 0,0 l/m S 6,5 km/h (2 Bft)
20.04.2006 12:00 18,0 C 37 % 0,0 l/m S-SW 8,9 km/h (2 Bft)
20.04.2006 13:00 18,7 C 34 % 0,0 l/m SW 10,6 km/h (2 Bft)
20.04.2006 14:00 19,1 C 31 % 0,0 l/m O-SO 13,8 km/h (3 Bft)
20.04.2006 15:00 19,6 C 30 % 0,0 l/m SW 10,8 km/h (2 Bft)
20.04.2006 16:00 19,0 C 34 % 0,0 l/m W 9,5 km/h (2 Bft)
20.04.2006 17:00 19,2 C 34 % 0,0 l/m N-NO 7,2 km/h (2 Bft)
20.04.2006 18:00 18,6 C 35 % 0,0 l/m N-NO 11,8 km/h (2 Bft)
20.04.2006 19:00 16,6 C 39 % 0,0 l/m N-NO 12,9 km/h (3 Bft)
20.04.2006 20:00 14,9 C 46 % 0,0 l/m N-NO 3,3 km/h (1 Bft)
20.04.2006 21:00 12,5 C 55 % 0,0 l/m N 0,0 km/h (0 Bft)
20.04.2006 22:00 10,8 C 62 % 0,0 l/m N 0,0 km/h (0 Bft)
20.04.2006 23:00 9,9 C 66 % 0,0 l/m N 0,0 km/h (0 Bft)
21.04.2006 00:00 9,0 C 69 % 0,0 l/m N 0,0 km/h (0 Bft)
21.04.2006 01:00 8,3 C 72 % 0,0 l/m NW 6,4 km/h (2 Bft)
21.04.2006 02:00 7,8 C 75 % 0,0 l/m NW 4,9 km/h (1 Bft)
21.04.2006 03:00 6,7 C 77 % 0,0 l/m N 0,0 km/h (0 Bft)
21.04.2006 04:00 5,6 C 80 % 0,0 l/m N 0,0 km/h (0 Bft)
21.04.2006 05:00 4,8 C 85 % 0,0 l/m N 0,0 km/h (0 Bft)
21.04.2006 06:00 4,6 C 90 % 0,0 l/m N-NW 1,8 km/h (1 Bft)
21.04.2006 07:00 5,2 C 92 % 0,0 l/m N-NW 0,4 km/h (0 Bft)
21.04.2006 08:00 8,3 C 88 % 0,0 l/m N 0,0 km/h (0 Bft)
21.04.2006 09:00 12,3 C 63 % 0,0 l/m O-SO 5,4 km/h (1 Bft)
21.04.2006 10:00 15,6 C 46 % 0,0 l/m S 8,1 km/h (2 Bft)
21.04.2006 11:00 18,2 C 39 % 0,0 l/m O 6,1 km/h (2 Bft)
21.04.2006 12:00 19,9 C 35 % 0,0 l/m O 9,4 km/h (2 Bft)
21.04.2006 13:00 20,7 C 31 % 0,0 l/m O 9,2 km/h (2 Bft)
21.04.2006 14:00 21,5 C 27 % 0,0 l/m NO 10,5 km/h (2 Bft)
21.04.2006 15:00 22,2 C 26 % 0,0 l/m O-SO 11,7 km/h (2 Bft)
21.04.2006 16:00 21,9 C 25 % 0,0 l/m N 6,5 km/h (2 Bft)
21.04.2006 17:00 22,3 C 25 % 0,0 l/m N 9,8 km/h (2 Bft)
21.04.2006 18:00 21,8 C 25 % 0,0 l/m N 8,3 km/h (2 Bft)
21.04.2006 19:00 20,0 C 28 % 0,0 l/m N-NO 3,2 km/h (1 Bft)
21.04.2006 20:00 16,6 C 38 % 0,0 l/m S 1,3 km/h (1 Bft)
21.04.2006 21:00 14,1 C 43 % 0,0 l/m N 0,0 km/h (0 Bft)
21.04.2006 22:00 12,2 C 50 % 0,0 l/m N 0,0 km/h (0 Bft)
21.04.2006 23:00 10,9 C 54 % 0,0 l/m N 0,0 km/h (0 Bft)
22.04.2006 00:00 9,7 C 58 % 0,0 l/m N 0,0 km/h (0 Bft)
22.04.2006 01:00 8,9 C 63 % 0,0 l/m N 0,0 km/h (0 Bft)
22.04.2006 02:00 7,8 C 70 % 0,0 l/m N 0,0 km/h (0 Bft)
22.04.2006 03:00 7,0 C 73 % 0,0 l/m N 0,0 km/h (0 Bft)
22.04.2006 04:00 6,1 C 77 % 0,0 l/m N 0,0 km/h (0 Bft)
22.04.2006 05:00 5,3 C 80 % 0,0 l/m N 0,0 km/h (0 Bft)
22.04.2006 06:00 5,0 C 84 % 0,0 l/m N 0,0 km/h (0 Bft)
22.04.2006 07:00 5,3 C 88 % 0,0 l/m N 0,0 km/h (0 Bft)
22.04.2006 08:00 8,9 C 81 % 0,0 l/m S-SW 6,2 km/h (2 Bft)
22.04.2006 09:00 12,2 C 62 % 0,0 l/m S 12,9 km/h (3 Bft)
22.04.2006 10:00 14,0 C 57 % 0,0 l/m S 13,2 km/h (3 Bft)
22.04.2006 11:00 16,2 C 50 % 0,0 l/m S 11,3 km/h (2 Bft)
22.04.2006 12:00 18,6 C 41 % 0,0 l/m S-SW 10,7 km/h (2 Bft)
22.04.2006 13:00 19,7 C 37 % 0,0 l/m O-NO 3,5 km/h (1 Bft)
22.04.2006 14:00 19,2 C 39 % 0,0 l/m N 14,2 km/h (3 Bft)
22.04.2006 15:00 18,3 C 41 % 0,0 l/m N 16,2 km/h (3 Bft)
22.04.2006 16:00 13,9 C 67 % 1,0 l/m NW 15,7 km/h (3 Bft)
22.04.2006 17:00 13,7 C 67 % 0,0 l/m NW 11,3 km/h (2 Bft)
22.04.2006 18:00 14,2 C 59 % 0,0 l/m W 4,5 km/h (1 Bft)
22.04.2006 19:00 14,1 C 59 % 0,0 l/m N 2,5 km/h (1 Bft)
22.04.2006 20:00 13,3 C 67 % 1,0 l/m N 0,0 km/h (0 Bft)
22.04.2006 21:00 12,0 C 78 % 0,0 l/m W-SW 11,3 km/h (2 Bft)
22.04.2006 22:00 11,0 C 85 % 0,0 l/m O-SO 6,8 km/h (2 Bft)
22.04.2006 23:00 10,4 C 90 % 0,0 l/m S 1,1 km/h (1 Bft)
23.04.2006 00:00 10,1 C 93 % 0,0 l/m W-SW 0,5 km/h (0 Bft)
23.04.2006 01:00 9,9 C 95 % 0,0 l/m O-SO 6,1 km/h (2 Bft)
23.04.2006 02:00 9,5 C 97 % 1,0 l/m S-SW 7,5 km/h (2 Bft)
23.04.2006 03:00 9,3 C 97 % 0,0 l/m N 0,0 km/h (0 Bft)
23.04.2006 04:00 9,1 C 98 % 0,0 l/m O-SO 6,8 km/h (2 Bft)
23.04.2006 05:00 9,2 C 94 % 0,0 l/m S-SW 8,7 km/h (2 Bft)
23.04.2006 06:00 8,5 C 93 % 0,0 l/m O 0,7 km/h (0 Bft)
23.04.2006 07:00 8,8 C 97 % 0,0 l/m S-SW 5,8 km/h (2 Bft)
23.04.2006 08:00 10,5 C 92 % 0,0 l/m SW 14,9 km/h (3 Bft)
23.04.2006 09:00 12,6 C 77 % 0,0 l/m S-SW 15,0 km/h (3 Bft)
23.04.2006 10:00 14,4 C 67 % 0,0 l/m S-SW 18,9 km/h (3 Bft)
23.04.2006 11:00 15,5 C 64 % 0,0 l/m S 20,9 km/h (4 Bft)
23.04.2006 12:00 16,0 C 56 % 0,0 l/m SW 20,6 km/h (4 Bft)
23.04.2006 13:00 17,0 C 50 % 0,0 l/m SW 21,8 km/h (4 Bft)
23.04.2006 14:00 15,6 C 56 % 0,0 l/m NW 18,2 km/h (3 Bft)
23.04.2006 15:00 13,9 C 70 % 3,0 l/m NW 10,2 km/h (2 Bft)
23.04.2006 16:00 14,2 C 77 % 0,0 l/m O-SO 3,6 km/h (1 Bft)
23.04.2006 17:00 15,9 C 64 % 0,0 l/m SO 2,0 km/h (1 Bft)
23.04.2006 18:00 16,6 C 55 % 0,0 l/m N-NW 2,1 km/h (1 Bft)
23.04.2006 19:00 16,1 C 59 % 0,0 l/m N-NO 6,6 km/h (2 Bft)
23.04.2006 20:00 15,0 C 63 % 0,0 l/m N-NW 4,0 km/h (1 Bft)
23.04.2006 21:00 12,5 C 61 % 0,0 l/m W-NW 2,1 km/h (1 Bft)
23.04.2006 22:00 10,3 C 67 % 0,0 l/m NW 1,9 km/h (1 Bft)
23.04.2006 23:00 9,1 C 66 % 0,0 l/m N 0,0 km/h (0 Bft)
Min-Datum _ 20.04.06 21.04.06 - - 17.04.06
_ Min-Zeit 06:51 15:17 - - 00:11
Minimum _ 3,7 C 25 % - - 0,0 km/h (0 Bft)
Max-Datum _ 21.04.06 17.04.06 23.04.06 - 17.04.06
_ Max-Zeit 15:31 07:53 15:36 - 13:35
Maximum _ 22,5 C 100 % 3,0 l/m - 34,8 km/h
S-SW (5 Bft)
Durchschnitt _ 11,8 C 65 % #6,0 l/m S-SW 5,5 km/h (1 Bft)

Durchschnitt Minimum Temp.11,2 C
Durchschnitt Maximum Temp.12,4 C